CYAW/YAW METAR and TAF weather

Enter ICAO airport designator
Station Type Date Time Source
CYAW METAR 2024/07/12 19:00 UTC NOAA

CYAW 121900Z 23009KT 15SM FEW020 SCT080 26/22 A3014 RMK CU1AC2 DENSITY ALT 1572FT LAST OBS /NEXT 150900 UTC SLP207


Station Type Date Time Source
CYAW Decoded METAR 2024/07/12 19:00 UTC NOAA

Shearwater, N. S., Canada (CYAW) 44-38N 063-30W 51M
Jul 12, 2024 - 03:00 PM EDT / 2024.07.12 1900 UTC
Wind: from the SW (230 degrees) at 10 MPH (9 KT):0
Visibility: 15 mile(s):0
Sky conditions: partly cloudy
Temperature: 78 F (26 C)
Dew Point: 71 F (22 C)
Relative Humidity: 78%
Pressure (altimeter): 30.14 in. Hg (1020 hPa)
ob: CYAW 121900Z 23009KT 15SM FEW020 SCT080 26/22 A3014 RMK CU1AC2 DENSITY ALT 1572FT LAST OBS /NEXT 150900 UTC SLP207
cycle: 19

Station Type Date Time Source
CYAW TAF 2024/07/12 18:45 UTC NOAA